createdAt,value
2019-01-02T00:00:35.019Z,3.90
2019-01-02T00:05:20.730Z,3.90
2019-01-02T00:10:06.794Z,3.90
2019-01-02T00:14:52.580Z,3.90
2019-01-02T00:19:38.270Z,3.90
2019-01-02T00:24:24.244Z,3.80
2019-01-02T00:29:10.089Z,3.80
2019-01-02T00:33:56.029Z,3.80
2019-01-02T00:38:41.771Z,4.00
2019-01-02T00:43:27.996Z,4.00
2019-01-02T00:48:14.200Z,4.00
2019-01-02T00:53:00.444Z,3.90
2019-01-02T00:57:46.634Z,4.10
2019-01-02T01:02:32.549Z,4.10
2019-01-02T01:07:18.297Z,4.00
2019-01-02T01:12:04.159Z,4.10
2019-01-02T01:16:49.874Z,4.20
2019-01-02T01:21:36.188Z,4.50
2019-01-02T01:26:22.332Z,4.50
2019-01-02T01:31:08.585Z,4.40
2019-01-02T01:35:54.444Z,4.30
2019-01-02T01:40:40.426Z,4.20
2019-01-02T01:45:26.109Z,4.20
2019-01-02T01:50:11.990Z,4.40
2019-01-02T01:54:57.752Z,4.50
2019-01-02T01:59:43.501Z,4.60
2019-01-02T02:04:29.744Z,4.50
2019-01-02T02:09:16.028Z,4.40
2019-01-02T02:14:02.156Z,4.40
2019-01-02T02:18:47.925Z,4.40
2019-01-02T02:23:33.636Z,4.20
2019-01-02T02:28:19.472Z,4.10
2019-01-02T02:33:05.322Z,3.80
2019-01-02T02:37:51.075Z,3.80
2019-01-02T02:42:36.757Z,4.00
2019-01-02T02:47:23.083Z,3.70
2019-01-02T02:52:09.255Z,3.50
2019-01-02T02:56:55.050Z,3.40
2019-01-02T03:01:41.141Z,3.40
2019-01-02T03:06:27.376Z,3.30
2019-01-02T03:11:13.461Z,3.30
2019-01-02T03:15:59.620Z,3.30
2019-01-02T03:20:45.609Z,3.30
2019-01-02T03:25:31.334Z,3.30
2019-01-02T03:30:19.331Z,3.40
2019-01-02T03:35:05.849Z,3.40
2019-01-02T03:39:51.659Z,3.60
2019-01-02T03:44:37.368Z,3.60
2019-01-02T03:49:23.173Z,3.60
2019-01-02T03:54:08.927Z,3.50
2019-01-02T03:58:54.618Z,3.40
2019-01-02T04:03:40.321Z,3.30
2019-01-02T04:08:26.570Z,3.30
2019-01-02T04:13:12.453Z,3.30
2019-01-02T04:17:58.162Z,3.30
2019-01-02T04:22:44.034Z,3.30
2019-01-02T04:27:29.774Z,3.30
2019-01-02T04:32:15.467Z,3.30
2019-01-02T04:37:01.131Z,3.20
2019-01-02T04:41:46.860Z,3.20
2019-01-02T04:46:32.531Z,3.00
2019-01-02T04:51:18.239Z,2.70
2019-01-02T04:56:04.071Z,2.30
2019-01-02T05:00:49.842Z,2.00
2019-01-02T05:05:35.537Z,1.70
2019-01-02T05:10:21.300Z,1.50
2019-01-02T05:15:07.868Z,1.40
2019-01-02T05:19:53.607Z,1.30
2019-01-02T05:24:39.348Z,1.10
2019-01-02T05:29:25.124Z,0.80
2019-01-02T05:34:10.833Z,0.80
2019-01-02T05:38:56.591Z,0.90
2019-01-02T05:43:42.313Z,1.00
2019-01-02T05:48:28.083Z,1.00
2019-01-02T05:53:13.779Z,1.20
2019-01-02T05:57:59.516Z,1.20
2019-01-02T06:02:45.219Z,1.30
2019-01-02T06:07:31.031Z,1.30
2019-01-02T06:12:16.832Z,1.40
2019-01-02T06:17:02.655Z,1.40
2019-01-02T06:21:48.483Z,1.40
2019-01-02T06:26:34.244Z,1.40
2019-01-02T06:31:20.089Z,1.40
2019-01-02T06:36:05.954Z,1.60
2019-01-02T06:40:51.991Z,1.60
2019-01-02T06:45:37.740Z,1.60
2019-01-02T06:50:27.278Z,1.70
2019-01-02T06:55:13.171Z,1.70
2019-01-02T06:59:58.959Z,1.60
2019-01-02T07:04:44.677Z,1.60
2019-01-02T07:09:30.589Z,1.60
2019-01-02T07:14:16.308Z,1.50
2019-01-02T07:19:02.083Z,1.50
2019-01-02T07:23:47.928Z,1.40
2019-01-02T07:28:33.656Z,1.30
2019-01-02T07:33:20.493Z,1.30
2019-01-02T07:38:18.213Z,1.00
2019-01-02T07:43:55.913Z,0.90
2019-01-02T07:49:06.657Z,0.80
2019-01-02T07:54:40.491Z,0.80
2019-01-02T08:00:14.631Z,0.90
2019-01-02T08:05:32.500Z,0.90
2019-01-02T08:10:49.463Z,1.00
2019-01-02T08:16:23.062Z,1.00
2019-01-02T08:21:45.483Z,1.20
2019-01-02T08:26:59.339Z,1.10
2019-01-02T08:32:30.775Z,1.20
2019-01-02T08:37:57.944Z,1.30
2019-01-02T08:43:30.199Z,1.30
2019-01-02T08:48:46.312Z,1.40
2019-01-02T08:53:55.404Z,1.70
2019-01-02T08:59:14.112Z,1.80
2019-01-02T09:04:30.222Z,1.90
2019-01-02T09:09:58.885Z,2.10
2019-01-02T09:15:22.624Z,2.10
2019-01-02T09:20:43.789Z,2.10
2019-01-02T09:25:58.446Z,2.10
2019-01-02T09:31:09.149Z,1.90
2019-01-02T09:36:25.131Z,1.90
2019-01-02T09:41:44.917Z,2.10
2019-01-02T09:47:08.443Z,2.40
2019-01-02T09:52:39.381Z,2.50
2019-01-02T09:57:55.752Z,2.40
2019-01-02T10:03:09.403Z,2.20
2019-01-02T10:08:35.866Z,2.40
2019-01-02T10:14:07.439Z,2.60
2019-01-02T10:19:08.354Z,2.60
2019-01-02T10:24:11.928Z,2.50
2019-01-02T10:29:21.156Z,2.10
2019-01-02T10:34:47.230Z,2.20
2019-01-02T10:40:21.842Z,2.50
2019-01-02T10:45:50.025Z,2.50
2019-01-02T10:51:13.298Z,2.30
2019-01-02T10:56:25.033Z,2.30
2019-01-02T11:01:44.735Z,2.30
2019-01-02T11:07:16.661Z,2.30
2019-01-02T11:13:01.277Z,2.40
2019-01-02T11:18:05.351Z,2.50
2019-01-02T11:23:07.406Z,2.50
2019-01-02T11:28:46.186Z,2.50
2019-01-02T11:34:01.728Z,2.40
2019-01-02T11:39:31.317Z,2.50
2019-01-02T11:44:53.193Z,2.50
2019-01-02T11:49:39.004Z,2.60
2019-01-02T11:54:24.869Z,2.60
2019-01-02T11:59:10.856Z,2.60
2019-01-02T12:03:56.649Z,2.70
2019-01-02T12:08:42.423Z,2.80
2019-01-02T12:13:28.224Z,2.70
2019-01-02T12:18:13.939Z,2.70
2019-01-02T12:22:59.769Z,2.80
2019-01-02T12:27:45.602Z,3.00
2019-01-02T12:32:31.378Z,3.00
2019-01-02T12:37:17.358Z,3.00
2019-01-02T12:42:03.520Z,3.20
2019-01-02T12:46:49.577Z,3.30
2019-01-02T12:51:35.609Z,3.20
2019-01-02T12:56:21.350Z,3.10
2019-01-02T13:01:08.631Z,3.00
2019-01-02T13:06:21.270Z,2.90
2019-01-02T13:11:18.570Z,2.80
2019-01-02T13:16:34.487Z,2.80
2019-01-02T13:21:54.088Z,2.80
2019-01-02T13:27:02.653Z,2.60
2019-01-02T13:32:11.654Z,2.60
2019-01-02T13:37:23.060Z,2.70
2019-01-02T13:42:42.327Z,2.70
2019-01-02T13:48:05.926Z,3.00
2019-01-02T13:52:51.696Z,3.70
2019-01-02T13:57:37.450Z,3.20
2019-01-02T14:02:23.498Z,2.40
2019-01-02T14:07:09.346Z,2.10
2019-01-02T14:11:55.117Z,2.20
2019-01-02T14:16:40.833Z,2.30
2019-01-02T14:21:26.842Z,2.00
2019-01-02T14:26:12.545Z,1.80
2019-01-02T14:30:58.370Z,1.90
2019-01-02T14:35:44.169Z,2.00
2019-01-02T14:40:30.159Z,2.10
2019-01-02T14:45:16.104Z,2.00
2019-01-02T14:50:02.387Z,1.90
2019-01-02T14:54:48.296Z,1.80
2019-01-02T14:59:34.267Z,1.90
2019-01-02T15:04:20.396Z,1.90
2019-01-02T15:09:09.288Z,1.90
2019-01-02T15:13:55.071Z,1.80
2019-01-02T15:18:41.036Z,1.90
2019-01-02T15:23:27.151Z,2.00
2019-01-02T15:28:13.094Z,2.00
2019-01-02T15:32:58.839Z,1.90
2019-01-02T15:37:44.765Z,1.90
2019-01-02T15:42:30.846Z,1.80
2019-01-02T15:47:16.813Z,1.90
2019-01-02T15:52:02.584Z,2.00
2019-01-02T15:56:48.339Z,2.10
2019-01-02T16:01:34.311Z,2.20
2019-01-02T16:06:20.089Z,2.10
2019-01-02T16:11:05.916Z,1.80
2019-01-02T16:15:51.760Z,1.50
2019-01-02T16:20:37.459Z,1.30
2019-01-02T16:25:23.261Z,1.20
2019-01-02T16:30:10.576Z,0.90
2019-01-02T16:34:56.586Z,0.90
2019-01-02T16:39:42.476Z,0.80
2019-01-02T16:44:28.263Z,0.70
2019-01-02T16:49:14.561Z,0.60
2019-01-02T16:54:00.349Z,0.70
2019-01-02T16:58:46.153Z,0.80
2019-01-02T17:03:32.064Z,0.90
2019-01-02T17:08:17.839Z,1.00
2019-01-02T17:13:03.686Z,1.10
2019-01-02T17:17:50.274Z,1.00
2019-01-02T17:22:36.156Z,0.90
2019-01-02T17:27:22.483Z,0.90
2019-01-02T17:32:08.816Z,0.90
2019-01-02T17:36:54.777Z,0.90
2019-01-02T17:41:40.906Z,0.90
2019-01-02T17:46:26.767Z,0.90
2019-01-02T17:51:13.170Z,1.10
2019-01-02T17:55:59.027Z,1.10
2019-01-02T18:00:44.817Z,1.00
2019-01-02T18:05:30.997Z,1.10
2019-01-02T18:10:17.074Z,1.20
2019-01-02T18:15:02.939Z,1.20
2019-01-02T18:19:48.922Z,1.20
2019-01-02T18:24:34.709Z,1.20
2019-01-02T18:29:20.786Z,1.10
2019-01-02T18:34:07.655Z,1.10
2019-01-02T18:38:53.716Z,1.20
2019-01-02T18:43:39.921Z,1.20
2019-01-02T18:48:25.915Z,1.20
2019-01-02T18:53:11.692Z,1.10
2019-01-02T18:57:57.815Z,1.00
2019-01-02T19:02:44.050Z,0.90
2019-01-02T19:07:32.006Z,0.80
2019-01-02T19:12:18.151Z,0.70
2019-01-02T19:17:04.674Z,0.80
2019-01-02T19:21:50.864Z,0.80
2019-01-02T19:26:39.232Z,0.90
2019-01-02T19:31:25.670Z,0.90
2019-01-02T19:36:11.610Z,0.90
2019-01-02T19:40:57.535Z,0.80
2019-01-02T19:45:43.749Z,0.80
2019-01-02T19:50:29.821Z,0.80
2019-01-02T19:55:16.034Z,0.80
2019-01-02T20:00:24.008Z,0.70
2019-01-02T20:05:07.871Z,0.70
2019-01-02T20:10:09.764Z,0.60
2019-01-02T20:15:20.461Z,0.40
2019-01-02T20:20:18.807Z,0.30
2019-01-02T20:25:05.556Z,0.30
2019-01-02T20:30:13.546Z,0.30
2019-01-02T20:35:10.371Z,0.50
2019-01-02T20:40:25.209Z,0.50
2019-01-02T20:45:26.613Z,0.60
2019-01-02T20:50:21.547Z,0.60
2019-01-02T20:55:19.345Z,0.40
2019-01-02T21:00:52.245Z,0.30
2019-01-02T21:05:55.786Z,0.20
2019-01-02T21:10:51.280Z,0.10
2019-01-02T21:15:58.674Z,0.00
2019-01-02T21:20:46.622Z,0.00
2019-01-02T21:25:37.983Z,0.10
2019-01-02T21:30:31.199Z,0.10
2019-01-02T21:35:39.940Z,0.10
2019-01-02T21:40:34.495Z,0.30
2019-01-02T21:45:28.405Z,0.30
2019-01-02T21:50:31.224Z,0.30
2019-01-02T21:55:32.694Z,0.30
2019-01-02T22:00:37.746Z,0.30
2019-01-02T22:05:34.842Z,0.40
2019-01-02T22:10:33.285Z,0.30
2019-01-02T22:15:27.048Z,0.30
2019-01-02T22:20:33.713Z,0.30
2019-01-02T22:25:29.426Z,0.20
2019-01-02T22:30:28.838Z,0.20
2019-01-02T22:35:34.682Z,0.20
2019-01-02T22:40:24.826Z,0.20
2019-01-02T22:45:25.398Z,0.20
2019-01-02T22:50:52.700Z,0.10
2019-01-02T22:55:54.804Z,0.00
2019-01-02T23:01:03.975Z,0.00
2019-01-02T23:06:10.116Z,-0.10
2019-01-02T23:11:13.545Z,-0.10
2019-01-02T23:16:16.841Z,-0.10
2019-01-02T23:21:37.752Z,-0.10
2019-01-02T23:26:45.199Z,-0.20
2019-01-02T23:31:53.001Z,-0.10
2019-01-02T23:37:01.895Z,-0.10
2019-01-02T23:42:08.016Z,-0.20
2019-01-02T23:47:24.947Z,0.30
2019-01-02T23:52:30.782Z,0.70
2019-01-02T23:57:41.836Z,0.30
